Time;durP1;ratioP1;P1;durP2;ratioP2;P2;SDS_P1;SDS_P2;PMS_P1;PMS_P2;Temp;Humidity;BMP_temperature;BMP_pressure;BME280_temperature;BME280_humidity;BME280_pressure;Samples;Min_cycle;Max_cycle;Signal;HPM_P1;HPM_P2
2022/09/27 00:01:46;;;;;;;0.40;0.40;;;12.80;99.90;;;;;;4417886;32;20097;-64
2022/09/27 00:04:11;;;;;;;0.30;0.30;;;12.70;99.90;;;;;;4398560;32;20094;-65
2022/09/27 00:06:37;;;;;;;0.40;0.40;;;12.80;99.90;;;;;;4414814;32;20505;-64
2022/09/27 00:09:03;;;;;;;0.40;0.40;;;12.80;99.90;;;;;;4416573;32;20101;-65
2022/09/27 00:11:33;;;;;;;0.50;0.50;;;12.80;99.90;;;;;;4417373;32;20107;-64
2022/09/27 00:13:59;;;;;;;1.25;1.00;;;12.70;99.90;;;;;;4418875;32;20069;-65
2022/09/27 00:16:28;;;;;;;0.50;0.50;;;12.80;99.90;;;;;;4416977;32;20388;-66
2022/09/27 00:18:59;;;;;;;0.30;0.30;;;12.80;99.90;;;;;;4417710;32;20216;-64
2022/09/27 00:21:24;;;;;;;0.40;0.40;;;12.80;99.90;;;;;;4418610;32;20544;-65
2022/09/27 00:23:50;;;;;;;0.77;0.77;;;12.90;99.90;;;;;;4415921;32;20120;-65
2022/09/27 00:26:15;;;;;;;0.28;0.28;;;12.80;99.90;;;;;;4418990;32;20423;-65
2022/09/27 00:28:41;;;;;;;0.40;0.40;;;12.80;99.90;;;;;;4415166;32;20065;-65
2022/09/27 00:31:19;;;;;;;0.30;0.30;;;12.80;99.90;;;;;;4413277;32;20093;-65
2022/09/27 00:33:45;;;;;;;0.40;0.40;;;12.80;99.90;;;;;;4399805;32;20081;-65
2022/09/27 00:36:11;;;;;;;0.50;0.50;;;12.90;99.90;;;;;;4407439;32;20119;-65
2022/09/27 00:38:36;;;;;;;0.20;0.20;;;12.90;99.90;;;;;;4413937;32;20073;-64
2022/09/27 00:41:02;;;;;;;0.45;0.45;;;12.80;99.90;;;;;;4413448;32;20085;-64
2022/09/27 00:43:44;;;;;;;0.30;0.30;;;12.80;99.90;;;;;;4415695;32;20131;-65
2022/09/27 00:46:11;;;;;;;1.17;0.95;;;12.80;99.90;;;;;;4404594;32;20147;-64
2022/09/27 00:48:37;;;;;;;0.30;0.30;;;12.80;99.90;;;;;;4414611;32;20205;-65
2022/09/27 00:51:05;;;;;;;0.43;0.43;;;12.90;99.90;;;;;;4416198;32;20161;-65
2022/09/27 00:53:38;;;;;;;0.30;0.30;;;12.80;99.90;;;;;;4419866;32;20142;-65
2022/09/27 00:56:09;;;;;;;0.30;0.30;;;12.80;99.90;;;;;;4415827;32;20094;-64
2022/09/27 00:58:39;;;;;;;0.40;0.40;;;12.80;99.90;;;;;;4403017;32;20082;-64
2022/09/27 01:01:09;;;;;;;0.30;0.30;;;12.80;99.90;;;;;;4413257;32;20073;-65
2022/09/27 01:03:41;;;;;;;0.30;0.30;;;12.90;99.90;;;;;;4402389;32;20109;-65
2022/09/27 01:06:09;;;;;;;0.22;0.22;;;12.90;99.90;;;;;;4407983;32;20101;-64
2022/09/27 01:08:34;;;;;;;0.50;0.50;;;12.90;99.90;;;;;;4415484;32;20134;-65
2022/09/27 01:11:28;;;;;;;0.85;0.62;;;12.90;99.90;;;;;;4415632;32;20074;-64
2022/09/27 01:14:23;;;;;;;0.40;0.40;;;12.90;99.90;;;;;;4411603;32;20102;-65
2022/09/27 01:17:00;;;;;;;0.35;0.35;;;12.90;99.90;;;;;;4408002;32;20136;-65
2022/09/27 01:19:41;;;;;;;0.30;0.30;;;12.90;99.90;;;;;;4415203;32;20093;-65
2022/09/27 01:22:16;;;;;;;0.80;0.60;;;12.80;99.90;;;;;;4413911;32;20106;-65
2022/09/27 01:24:53;;;;;;;0.30;0.30;;;12.80;99.90;;;;;;4416654;32;20076;-65
2022/09/27 01:27:59;;;;;;;0.30;0.30;;;12.80;99.90;;;;;;4401765;32;20520;-64
2022/09/27 01:30:31;;;;;;;0.30;0.30;;;12.80;99.90;;;;;;4401532;32;20085;-65
2022/09/27 01:33:13;;;;;;;1.00;0.90;;;12.70;99.90;;;;;;4408720;32;20090;-65
2022/09/27 01:36:00;;;;;;;0.30;0.30;;;12.70;99.90;;;;;;4402567;32;20515;-65
2022/09/27 01:38:56;;;;;;;0.40;0.40;;;12.80;99.90;;;;;;4405413;32;20097;-65
2022/09/27 01:41:46;;;;;;;0.30;0.30;;;12.70;99.90;;;;;;4407213;32;20090;-64
2022/09/27 01:44:21;;;;;;;0.30;0.30;;;12.80;99.90;;;;;;4402034;32;20082;-65
2022/09/27 01:46:52;;;;;;;0.40;0.40;;;12.80;99.90;;;;;;4417012;32;20101;-65
2022/09/27 01:49:26;;;;;;;0.50;0.50;;;12.80;99.90;;;;;;4413525;32;20141;-64
2022/09/27 01:51:58;;;;;;;0.40;0.40;;;12.80;99.90;;;;;;4414045;32;20529;-64
2022/09/27 01:54:32;;;;;;;0.40;0.40;;;12.80;99.90;;;;;;4414354;32;20081;-65
2022/09/27 01:57:00;;;;;;;0.30;0.30;;;12.80;99.90;;;;;;4418095;32;20080;-65
2022/09/27 01:59:31;;;;;;;0.40;0.40;;;12.80;99.90;;;;;;4413680;32;20077;-65
2022/09/27 02:02:01;;;;;;;0.30;0.30;;;12.80;99.90;;;;;;4413583;32;20141;-64
2022/09/27 02:04:32;;;;;;;0.40;0.40;;;12.80;99.90;;;;;;4395436;32;20073;-65
2022/09/27 02:07:07;;;;;;;0.40;0.40;;;12.80;99.90;;;;;;4412930;32;20074;-65
2022/09/27 02:09:42;;;;;;;0.35;0.35;;;12.90;99.90;;;;;;4416644;32;20097;-65
2022/09/27 02:12:12;;;;;;;0.45;0.45;;;12.90;99.90;;;;;;4414481;32;20556;-65
2022/09/27 02:14:40;;;;;;;0.52;0.52;;;12.90;99.90;;;;;;4414363;32;20118;-65
2022/09/27 02:17:13;;;;;;;0.40;0.40;;;12.90;99.90;;;;;;4416692;32;20098;-64
2022/09/27 02:19:55;;;;;;;0.62;0.55;;;12.90;99.90;;;;;;4415359;32;20121;-65
2022/09/27 02:22:44;;;;;;;0.30;0.30;;;13.00;99.90;;;;;;4414758;32;20097;-64
2022/09/27 02:25:35;;;;;;;0.37;0.37;;;12.90;99.90;;;;;;4405413;32;20151;-66
2022/09/27 02:28:24;;;;;;;0.35;0.35;;;12.80;99.90;;;;;;4417920;32;20449;-65
2022/09/27 02:30:50;;;;;;;0.40;0.40;;;12.90;99.90;;;;;;4403336;32;20101;-65
2022/09/27 02:33:20;;;;;;;0.40;0.40;;;12.90;99.90;;;;;;4404542;32;20085;-65
2022/09/27 02:35:46;;;;;;;0.80;0.50;;;13.00;99.90;;;;;;4403353;32;20124;-64
2022/09/27 02:38:12;;;;;;;0.50;0.50;;;13.00;99.90;;;;;;4416515;32;20601;-64
2022/09/27 02:40:43;;;;;;;0.40;0.40;;;13.10;99.90;;;;;;4414524;32;20136;-65
2022/09/27 02:43:11;;;;;;;0.30;0.30;;;13.10;99.90;;;;;;4412941;32;20109;-65
2022/09/27 02:45:53;;;;;;;0.30;0.30;;;13.10;99.90;;;;;;4417218;32;20128;-65
2022/09/27 02:48:46;;;;;;;0.30;0.30;;;13.10;99.90;;;;;;4413860;32;20069;-65
2022/09/27 02:51:31;;;;;;;3.85;0.88;;;13.10;99.90;;;;;;4400942;32;20624;-65
2022/09/27 02:54:22;;;;;;;15.88;0.50;;;13.10;99.90;;;;;;4412161;32;20078;-65
2022/09/27 02:57:17;;;;;;;0.93;0.62;;;13.00;99.90;;;;;;4401217;32;20085;-65
2022/09/27 03:00:06;;;;;;;0.30;0.30;;;13.00;99.90;;;;;;4403060;32;20097;-65
2022/09/27 03:02:50;;;;;;;0.30;0.30;;;12.90;99.90;;;;;;4411029;32;20081;-65
2022/09/27 03:05:21;;;;;;;0.98;0.82;;;13.00;99.90;;;;;;4399669;32;20078;-65
2022/09/27 03:07:47;;;;;;;;;;;13.00;99.90;;;;;;4418055;32;20097;-64
2022/09/27 03:10:18;;;;;;;0.57;0.57;;;13.00;99.90;;;;;;4415028;32;19964;-66
2022/09/27 03:12:43;;;;;;;;;;;12.90;99.90;;;;;;4413857;32;20088;-65
2022/09/27 03:15:09;;;;;;;0.25;0.25;;;13.00;99.90;;;;;;4414160;32;20433;-65
2022/09/27 03:17:35;;;;;;;0.20;0.20;;;13.00;99.90;;;;;;4416059;32;20105;-65
2022/09/27 03:20:01;;;;;;;0.40;0.40;;;13.00;99.90;;;;;;4416449;32;20085;-65
2022/09/27 03:22:26;;;;;;;0.30;0.30;;;13.00;99.90;;;;;;4413176;32;20473;-65
2022/09/27 03:24:52;;;;;;;0.40;0.40;;;13.00;99.90;;;;;;4414576;32;20093;-65
2022/09/27 03:27:17;;;;;;;3.40;0.98;;;13.00;99.90;;;;;;4413340;32;20074;-64
2022/09/27 03:29:43;;;;;;;0.30;0.30;;;12.90;99.90;;;;;;4411737;32;20102;-64
2022/09/27 03:32:09;;;;;;;0.40;0.40;;;12.90;99.90;;;;;;4413097;32;20085;-64
2022/09/27 03:34:34;;;;;;;0.30;0.30;;;12.90;99.90;;;;;;4391927;32;20591;-65
2022/09/27 03:37:00;;;;;;;0.35;0.35;;;12.90;99.90;;;;;;4415130;32;20128;-65
2022/09/27 03:39:26;;;;;;;0.30;0.30;;;12.90;99.90;;;;;;4416283;32;20066;-65
2022/09/27 03:41:52;;;;;;;0.45;0.45;;;12.90;99.90;;;;;;4414300;32;20142;-65
2022/09/27 03:44:17;;;;;;;0.40;0.40;;;12.90;99.90;;;;;;4412959;32;20085;-65
2022/09/27 03:46:42;;;;;;;0.40;0.40;;;12.80;99.90;;;;;;4417126;32;20069;-64
2022/09/27 03:49:08;;;;;;;0.40;0.40;;;12.80;99.90;;;;;;4413772;32;20137;-65
2022/09/27 03:51:33;;;;;;;0.50;0.50;;;12.80;99.90;;;;;;4414086;32;20542;-65
2022/09/27 03:53:59;;;;;;;0.47;0.47;;;12.80;99.90;;;;;;4412471;32;20129;-65
2022/09/27 03:56:24;;;;;;;1.02;0.95;;;12.80;99.90;;;;;;4417065;32;20057;-65
2022/09/27 03:58:50;;;;;;;0.50;0.50;;;12.60;99.90;;;;;;4418924;32;20117;-65
2022/09/27 04:01:15;;;;;;;0.30;0.30;;;12.60;99.90;;;;;;4413620;32;20548;-67
2022/09/27 04:03:41;;;;;;;0.37;0.37;;;12.60;99.90;;;;;;4398946;32;20124;-65
2022/09/27 04:06:07;;;;;;;0.35;0.35;;;12.60;99.90;;;;;;4407192;32;20077;-65
2022/09/27 04:08:32;;;;;;;0.40;0.40;;;12.70;99.90;;;;;;4419949;32;20548;-65
2022/09/27 04:10:58;;;;;;;0.47;0.47;;;12.60;99.90;;;;;;4416324;32;20132;-65
2022/09/27 04:13:23;;;;;;;0.50;0.50;;;12.70;99.90;;;;;;4417090;32;20088;-65
2022/09/27 04:15:49;;;;;;;0.32;0.32;;;12.60;99.90;;;;;;4419538;32;20069;-65
2022/09/27 04:18:14;;;;;;;0.55;0.43;;;12.60;99.90;;;;;;4417858;32;20074;-65
2022/09/27 04:20:40;;;;;;;0.50;0.50;;;12.60;99.90;;;;;;4414951;32;20530;-65
2022/09/27 04:23:06;;;;;;;0.40;0.40;;;12.60;99.90;;;;;;4376807;32;20141;-64
2022/09/27 04:25:32;;;;;;;0.40;0.40;;;12.70;99.90;;;;;;4355504;32;20609;-64
2022/09/27 04:27:58;;;;;;;0.30;0.30;;;12.60;99.90;;;;;;4364691;32;20077;-65
2022/09/27 04:30:25;;;;;;;0.30;0.30;;;12.60;99.90;;;;;;4347578;32;20078;-65
2022/09/27 04:32:51;;;;;;;0.40;0.40;;;12.50;99.90;;;;;;4411333;32;20092;-65
2022/09/27 04:36:32;;;;;;;0.37;0.37;;;12.30;99.90;;;;;;4401238;32;20128;-65
2022/09/27 04:38:02;;;;;;;0.40;0.40;;;12.30;99.90;;;;;;4412037;32;20483;-65
2022/09/27 04:40:28;;;;;;;0.40;0.40;;;12.30;99.90;;;;;;4413634;32;20085;-65
2022/09/27 04:42:55;;;;;;;0.45;0.45;;;12.20;99.90;;;;;;4413879;32;20065;-65
2022/09/27 04:45:20;;;;;;;0.30;0.30;;;12.20;99.90;;;;;;4416615;32;20068;-65
2022/09/27 04:47:48;;;;;;;0.57;0.52;;;12.20;99.90;;;;;;4419664;32;20092;-66
2022/09/27 04:50:14;;;;;;;0.40;0.40;;;12.10;99.90;;;;;;4418206;32;20082;-65
2022/09/27 04:52:40;;;;;;;0.60;0.60;;;12.00;99.90;;;;;;4390818;32;20387;-65
2022/09/27 04:55:07;;;;;;;0.47;0.47;;;12.00;99.90;;;;;;4382391;32;20406;-65
2022/09/27 04:57:33;;;;;;;1.08;0.50;;;12.00;99.90;;;;;;4416525;32;20509;-65
2022/09/27 04:59:59;;;;;;;0.37;0.37;;;12.00;99.90;;;;;;4410758;32;20102;-64
2022/09/27 05:02:25;;;;;;;0.30;0.30;;;12.00;99.90;;;;;;4401329;32;20077;-64
2022/09/27 05:04:51;;;;;;;0.43;0.43;;;12.10;99.90;;;;;;4353434;32;20097;-64
2022/09/27 05:07:17;;;;;;;0.20;0.20;;;12.10;99.90;;;;;;4361782;32;20509;-65
2022/09/27 05:09:44;;;;;;;0.32;0.32;;;12.00;99.90;;;;;;4357942;32;20367;-65
2022/09/27 05:12:10;;;;;;;0.60;0.60;;;12.00;99.90;;;;;;4361303;32;20533;-66
2022/09/27 05:14:36;;;;;;;0.50;0.50;;;12.10;99.90;;;;;;4389085;32;20080;-64
2022/09/27 05:17:01;;;;;;;0.40;0.40;;;12.00;99.90;;;;;;4384476;32;20559;-64
2022/09/27 05:19:27;;;;;;;0.30;0.30;;;12.00;99.90;;;;;;4313910;32;20081;-64
2022/09/27 05:21:52;;;;;;;0.43;0.43;;;12.00;99.90;;;;;;4289064;32;20390;-64
2022/09/27 05:24:18;;;;;;;0.30;0.30;;;12.00;99.90;;;;;;4271485;32;20407;-65
2022/09/27 05:26:45;;;;;;;0.40;0.40;;;11.90;99.90;;;;;;4285352;32;20304;-65
2022/09/27 05:29:11;;;;;;;0.40;0.40;;;11.80;99.90;;;;;;4360366;32;20179;-65
2022/09/27 05:31:37;;;;;;;0.68;0.68;;;11.90;99.90;;;;;;4321208;32;20417;-65
2022/09/27 05:34:03;;;;;;;0.32;0.32;;;11.90;99.90;;;;;;4314007;32;20349;-65
2022/09/27 05:36:29;;;;;;;0.50;0.50;;;11.80;99.90;;;;;;4299132;32;20234;-65
2022/09/27 05:38:57;;;;;;;0.40;0.40;;;11.80;99.90;;;;;;4334154;32;20750;-64
2022/09/27 05:41:24;;;;;;;0.30;0.30;;;11.80;99.90;;;;;;4344507;32;20108;-64
2022/09/27 05:43:50;;;;;;;0.50;0.50;;;11.80;99.90;;;;;;4372821;32;20097;-64
2022/09/27 05:46:15;;;;;;;0.28;0.28;;;11.80;99.90;;;;;;4388649;32;20491;-64
2022/09/27 05:48:40;;;;;;;0.30;0.30;;;11.90;99.90;;;;;;4377317;32;20116;-64
2022/09/27 05:51:06;;;;;;;0.40;0.40;;;11.80;99.90;;;;;;4365108;32;20113;-65
2022/09/27 05:53:31;;;;;;;0.70;0.50;;;11.90;99.90;;;;;;4375754;32;20100;-65
2022/09/27 05:56:00;;;;;;;0.40;0.40;;;12.00;99.90;;;;;;4374378;32;21759;-65
2022/09/27 05:58:26;;;;;;;0.30;0.30;;;12.00;99.90;;;;;;4371191;32;20748;-65
2022/09/27 06:00:51;;;;;;;1.65;0.82;;;12.00;99.90;;;;;;4336963;32;20324;-64
2022/09/27 06:03:18;;;;;;;0.37;0.37;;;12.00;99.90;;;;;;4349652;32;20590;-64
2022/09/27 06:05:43;;;;;;;0.62;0.62;;;11.90;99.90;;;;;;4356873;32;20410;-64
2022/09/27 06:08:11;;;;;;;0.40;0.40;;;11.90;99.90;;;;;;4361599;32;20716;-65
2022/09/27 06:10:39;;;;;;;0.57;0.57;;;11.80;99.90;;;;;;4376270;32;20093;-65
2022/09/27 06:13:08;;;;;;;0.40;0.40;;;11.80;99.90;;;;;;4376183;32;20101;-65
2022/09/27 06:15:36;;;;;;;0.60;0.60;;;11.80;99.90;;;;;;4380561;32;21158;-65
2022/09/27 06:18:07;;;;;;;0.45;0.45;;;11.90;99.90;;;;;;4373443;32;20113;-65
2022/09/27 06:20:33;;;;;;;0.20;0.20;;;11.90;99.90;;;;;;4372449;32;20323;-66
2022/09/27 06:23:18;;;;;;;0.40;0.40;;;11.80;99.90;;;;;;4377437;32;20211;-65
2022/09/27 06:25:45;;;;;;;0.40;0.40;;;11.90;99.90;;;;;;4367048;32;21158;-65
2022/09/27 06:28:12;;;;;;;0.50;0.50;;;11.90;99.90;;;;;;4373238;32;20101;-66
2022/09/27 06:30:40;;;;;;;0.30;0.30;;;11.90;99.90;;;;;;4351306;32;20128;-65
2022/09/27 06:33:06;;;;;;;0.50;0.50;;;12.00;99.90;;;;;;4360062;32;20106;-66
2022/09/27 06:35:34;;;;;;;1.10;0.80;;;11.90;99.90;;;;;;4358257;32;20123;-66
2022/09/27 06:38:03;;;;;;;0.30;0.30;;;11.90;99.90;;;;;;4379214;32;20890;-65
2022/09/27 06:40:29;;;;;;;0.88;0.50;;;12.00;99.90;;;;;;4377813;32;20199;-65
2022/09/27 06:43:02;;;;;;;0.40;0.40;;;11.90;99.90;;;;;;4373817;32;20085;-65
2022/09/27 06:45:27;;;;;;;0.43;0.43;;;11.90;99.90;;;;;;4384788;32;20831;-65
2022/09/27 06:47:54;;;;;;;0.50;0.50;;;11.90;99.90;;;;;;4380452;32;20257;-64
2022/09/27 06:50:19;;;;;;;0.40;0.40;;;11.90;99.90;;;;;;4371470;32;20089;-65
2022/09/27 06:52:47;;;;;;;0.52;0.52;;;12.00;99.90;;;;;;4375329;32;20140;-65
2022/09/27 06:55:13;;;;;;;0.65;0.40;;;11.90;99.90;;;;;;4378998;32;20101;-65
2022/09/27 07:00:25;;;;;;;0.40;0.40;;;12.00;99.90;;;;;;4353306;32;20101;-65
2022/09/27 07:02:52;;;;;;;0.40;0.40;;;12.00;99.90;;;;;;4361056;32;20192;-64
2022/09/27 07:05:18;;;;;;;3.50;2.15;;;11.90;99.90;;;;;;4349975;32;20359;-65
2022/09/27 07:07:44;;;;;;;0.30;0.30;;;12.00;99.90;;;;;;4370022;32;20239;-64
2022/09/27 07:10:10;;;;;;;0.30;0.30;;;12.00;99.90;;;;;;4381553;32;20246;-64
2022/09/27 07:12:36;;;;;;;0.43;0.43;;;12.00;99.90;;;;;;4382282;32;20304;-65
2022/09/27 07:15:02;;;;;;;0.40;0.40;;;12.00;99.90;;;;;;4381817;32;20255;-64
2022/09/27 07:17:28;;;;;;;0.30;0.30;;;11.90;99.90;;;;;;4380352;32;20650;-65
2022/09/27 07:19:54;;;;;;;0.50;0.50;;;11.90;99.90;;;;;;4356529;32;20276;-65
2022/09/27 07:22:20;;;;;;;0.20;0.20;;;11.90;99.90;;;;;;4367985;32;20984;-64
2022/09/27 07:24:45;;;;;;;0.40;0.40;;;11.90;99.90;;;;;;4380170;32;20192;-66
2022/09/27 07:27:11;;;;;;;0.40;0.40;;;12.00;99.90;;;;;;4385756;32;20723;-65
2022/09/27 07:29:36;;;;;;;1.40;0.40;;;12.00;99.90;;;;;;4360941;32;20987;-65
2022/09/27 07:32:03;;;;;;;0.52;0.52;;;12.00;99.90;;;;;;4339103;32;20216;-64
2022/09/27 07:34:28;;;;;;;0.40;0.40;;;12.10;99.90;;;;;;4327063;32;20543;-66
2022/09/27 07:37:04;;;;;;;0.30;0.30;;;12.20;99.90;;;;;;4347562;32;20381;-63
2022/09/27 07:39:30;;;;;;;0.35;0.35;;;12.10;99.90;;;;;;4361299;32;20117;-65
2022/09/27 07:41:56;;;;;;;0.30;0.30;;;12.00;99.90;;;;;;4371004;32;20197;-65
2022/09/27 07:44:21;;;;;;;0.40;0.40;;;12.00;99.90;;;;;;4378563;32;20763;-64
2022/09/27 07:46:47;;;;;;;0.30;0.30;;;12.00;99.90;;;;;;4376131;32;20126;-64
2022/09/27 07:49:12;;;;;;;3.75;0.45;;;12.10;99.90;;;;;;4355572;32;20536;-65
2022/09/27 07:51:38;;;;;;;0.32;0.32;;;12.10;99.90;;;;;;4349376;32;20109;-65
2022/09/27 07:54:03;;;;;;;5.15;0.40;;;12.10;99.90;;;;;;4372786;32;20673;-65
2022/09/27 07:56:29;;;;;;;0.70;0.70;;;12.20;99.90;;;;;;4378973;32;20092;-65
2022/09/27 07:58:54;;;;;;;0.30;0.30;;;12.30;99.90;;;;;;4362772;32;20101;-65
2022/09/27 08:01:20;;;;;;;0.50;0.50;;;12.30;99.90;;;;;;4370246;32;20093;-64
2022/09/27 08:03:46;;;;;;;0.30;0.30;;;12.30;99.90;;;;;;4362940;32;20226;-64
2022/09/27 08:06:12;;;;;;;0.40;0.40;;;12.20;99.90;;;;;;4368228;32;20494;-64
2022/09/27 08:08:38;;;;;;;0.30;0.30;;;12.30;99.90;;;;;;4383254;32;20134;-65
2022/09/27 08:11:20;;;;;;;0.40;0.40;;;12.20;99.90;;;;;;4383111;32;20192;-64
2022/09/27 08:13:48;;;;;;;0.57;0.57;;;12.30;99.90;;;;;;4385461;32;20302;-65
2022/09/27 08:16:14;;;;;;;0.40;0.40;;;12.30;99.90;;;;;;4393548;32;20169;-64
2022/09/27 08:18:39;;;;;;;0.50;0.50;;;12.30;99.90;;;;;;4376356;32;20134;-65
2022/09/27 08:21:05;;;;;;;0.30;0.30;;;12.30;99.90;;;;;;4379517;32;20077;-64
2022/09/27 08:23:30;;;;;;;1.33;0.70;;;12.30;99.90;;;;;;4385865;32;20880;-65
2022/09/27 08:25:58;;;;;;;0.40;0.40;;;12.20;99.90;;;;;;4384265;32;20864;-65
2022/09/27 08:28:25;;;;;;;0.40;0.40;;;12.20;99.90;;;;;;4389547;32;21300;-64
2022/09/27 08:30:50;;;;;;;0.80;0.50;;;12.30;99.90;;;;;;4378864;32;20137;-65
2022/09/27 08:33:16;;;;;;;0.40;0.40;;;12.30;99.90;;;;;;4369853;32;87527;-65
2022/09/27 08:35:42;;;;;;;0.40;0.40;;;12.20;99.90;;;;;;4369566;32;20810;-65
2022/09/27 08:38:09;;;;;;;0.40;0.40;;;12.30;99.90;;;;;;4377705;32;20256;-65
2022/09/27 08:40:54;;;;;;;0.40;0.40;;;12.30;99.90;;;;;;4364097;32;20105;-65
2022/09/27 08:43:32;;;;;;;0.30;0.30;;;12.40;99.90;;;;;;4377765;32;20653;-66
2022/09/27 08:46:23;;;;;;;0.22;0.22;;;12.40;99.90;;;;;;4376687;32;20081;-65
2022/09/27 08:48:55;;;;;;;0.50;0.50;;;12.40;99.90;;;;;;4356095;32;20901;-65
2022/09/27 08:51:28;;;;;;;0.40;0.40;;;12.40;99.90;;;;;;4383308;32;20093;-65
2022/09/27 08:53:59;;;;;;;1.48;0.68;;;12.40;99.90;;;;;;4380292;32;20235;-64
2022/09/27 08:56:25;;;;;;;;;;;12.40;99.90;;;;;;4385842;32;20137;-64
2022/09/27 08:59:00;;;;;;;0.40;0.40;;;12.40;99.90;;;;;;4385370;32;19994;-64
2022/09/27 09:01:25;;;;;;;0.40;0.40;;;12.40;99.90;;;;;;4361697;32;20125;-64
2022/09/27 09:03:55;;;;;;;0.40;0.40;;;12.40;99.90;;;;;;4341829;32;20505;-64
2022/09/27 09:06:25;;;;;;;0.37;0.37;;;12.50;99.90;;;;;;4350223;32;20282;-62
2022/09/27 09:09:19;;;;;;;0.32;0.32;;;12.50;99.90;;;;;;4344609;32;20282;-64
2022/09/27 09:12:48;;;;;;;8.02;1.10;;;12.50;99.90;;;;;;4366505;32;20251;-64
2022/09/27 09:15:30;;;;;;;0.40;0.40;;;12.50;99.90;;;;;;4371350;32;21190;-65
2022/09/27 09:18:08;;;;;;;0.57;0.57;;;12.50;99.90;;;;;;4345128;32;20101;-65
2022/09/27 09:20:49;;;;;;;1.02;0.95;;;12.50;99.90;;;;;;4356921;32;20089;-64
2022/09/27 09:23:40;;;;;;;0.57;0.57;;;12.50;99.90;;;;;;4352138;32;20551;-64
2022/09/27 09:26:31;;;;;;;0.57;0.57;;;12.40;99.90;;;;;;4338871;32;20100;-65
2022/09/27 09:29:23;;;;;;;0.50;0.50;;;12.40;99.90;;;;;;4344772;32;20100;-65
2022/09/27 09:32:06;;;;;;;1.65;0.77;;;12.50;99.90;;;;;;4323801;32;20216;-65
2022/09/27 09:34:41;;;;;;;0.20;0.20;;;12.60;99.90;;;;;;4331721;32;20933;-65
2022/09/27 09:37:16;;;;;;;0.40;0.40;;;12.70;99.90;;;;;;4358013;32;20089;-65
2022/09/27 09:39:47;;;;;;;0.40;0.40;;;12.60;99.90;;;;;;4356795;32;20084;-64
2022/09/27 09:42:18;;;;;;;0.62;0.60;;;12.60;99.90;;;;;;4364150;32;20120;-65
2022/09/27 09:44:55;;;;;;;0.55;0.55;;;12.60;99.90;;;;;;4370434;32;20094;-65
2022/09/27 09:47:41;;;;;;;0.30;0.30;;;12.70;99.90;;;;;;4368619;32;20505;-65
2022/09/27 09:50:26;;;;;;;0.95;0.70;;;12.70;99.90;;;;;;4344869;32;20960;-65
2022/09/27 09:53:19;;;;;;;0.45;0.45;;;12.70;99.90;;;;;;4359153;32;20237;-65
2022/09/27 09:55:52;;;;;;;0.30;0.30;;;12.80;99.90;;;;;;4361989;32;20526;-65
2022/09/27 09:58:43;;;;;;;7.07;1.12;;;12.80;99.90;;;;;;4367334;32;20097;-64
2022/09/27 10:01:28;;;;;;;0.45;0.45;;;12.90;99.90;;;;;;4345013;32;20235;-65
2022/09/27 10:03:55;;;;;;;0.40;0.40;;;13.00;99.90;;;;;;4343657;32;20900;-65
2022/09/27 10:06:22;;;;;;;0.40;0.40;;;13.10;99.90;;;;;;4363405;32;20735;-65
2022/09/27 10:08:53;;;;;;;0.60;0.60;;;13.20;99.90;;;;;;4354141;32;20121;-65
2022/09/27 10:11:24;;;;;;;0.40;0.40;;;13.50;99.90;;;;;;4362002;32;20235;-65
2022/09/27 10:13:50;;;;;;;;;;;13.60;99.90;;;;;;4357840;32;21121;-65
2022/09/27 10:16:19;;;;;;;0.40;0.40;;;13.70;99.90;;;;;;4336618;32;20501;-65
2022/09/27 10:18:46;;;;;;;0.50;0.50;;;13.70;99.90;;;;;;4332967;32;20214;-64
2022/09/27 10:21:18;;;;;;;0.50;0.50;;;13.70;99.90;;;;;;4327458;32;20323;-64
2022/09/27 10:24:07;;;;;;;0.70;0.70;;;13.60;99.90;;;;;;4338493;32;20119;-65
2022/09/27 10:26:36;;;;;;;0.37;0.37;;;13.60;99.90;;;;;;4361709;32;20913;-65
2022/09/27 10:29:24;;;;;;;0.40;0.40;;;13.70;99.90;;;;;;4380108;32;20739;-64
2022/09/27 10:31:51;;;;;;;0.50;0.50;;;13.70;99.90;;;;;;4358127;32;20180;-64
2022/09/27 10:34:19;;;;;;;0.30;0.30;;;13.70;99.90;;;;;;4357396;32;20571;-64
2022/09/27 10:36:44;;;;;;;0.32;0.32;;;13.60;99.90;;;;;;4370874;32;20256;-66
2022/09/27 10:39:22;;;;;;;0.85;0.60;;;13.60;99.90;;;;;;4383766;32;21285;-63
2022/09/27 10:41:48;;;;;;;0.40;0.40;;;13.80;99.90;;;;;;4380709;32;20167;-65
2022/09/27 10:44:17;;;;;;;0.60;0.60;;;13.80;99.90;;;;;;4387425;32;20109;-66
2022/09/27 10:46:48;;;;;;;0.40;0.40;;;13.90;99.90;;;;;;4380212;32;20076;-65
2022/09/27 10:49:21;;;;;;;1.45;1.08;;;13.90;99.90;;;;;;4357909;32;20164;-63
2022/09/27 10:51:50;;;;;;;0.50;0.50;;;13.90;99.90;;;;;;4353601;32;20866;-64
2022/09/27 10:54:20;;;;;;;0.52;0.52;;;13.90;99.90;;;;;;4351850;32;20097;-65
2022/09/27 10:56:55;;;;;;;1.17;0.60;;;13.80;99.90;;;;;;4365138;32;20085;-65
2022/09/27 10:59:22;;;;;;;0.35;0.35;;;13.70;99.90;;;;;;4364682;32;21098;-64
2022/09/27 11:01:49;;;;;;;0.43;0.43;;;13.70;99.90;;;;;;4363295;32;20350;-64
2022/09/27 11:04:21;;;;;;;0.37;0.37;;;13.80;99.90;;;;;;4356421;32;20644;-64
2022/09/27 11:06:48;;;;;;;0.47;0.35;;;13.90;99.90;;;;;;4370412;32;20093;-65
2022/09/27 11:09:23;;;;;;;0.40;0.40;;;13.90;99.90;;;;;;4381114;32;20089;-64
2022/09/27 11:11:49;;;;;;;0.30;0.30;;;13.80;99.90;;;;;;4370554;32;20692;-65
2022/09/27 11:14:19;;;;;;;0.77;0.77;;;13.80;99.90;;;;;;4370444;32;20777;-65
2022/09/27 11:17:08;;;;;;;0.40;0.40;;;13.70;99.90;;;;;;4367449;32;20089;-64
2022/09/27 11:20:00;;;;;;;0.40;0.40;;;13.60;99.90;;;;;;4354812;32;20676;-64
2022/09/27 11:22:47;;;;;;;0.37;0.37;;;13.50;99.90;;;;;;4360768;32;20104;-64
2022/09/27 11:25:29;;;;;;;0.80;0.80;;;13.50;99.90;;;;;;4375401;32;21477;-64
2022/09/27 11:28:35;;;;;;;0.30;0.30;;;13.50;99.90;;;;;;4384609;32;20105;-65
2022/09/27 11:31:23;;;;;;;0.50;0.50;;;13.40;99.90;;;;;;4340164;32;20164;-65
2022/09/27 11:34:12;;;;;;;1.33;0.60;;;13.40;99.90;;;;;;4338009;32;22210;-63
2022/09/27 11:36:45;;;;;;;0.40;0.40;;;13.40;99.90;;;;;;4339370;32;20459;-65
2022/09/27 11:39:50;;;;;;;0.40;0.40;;;12.90;99.90;;;;;;4365789;32;20098;-65
2022/09/27 11:42:33;;;;;;;0.22;0.22;;;12.50;99.90;;;;;;4353535;32;20097;-66
2022/09/27 11:45:35;;;;;;;0.30;0.30;;;12.00;99.90;;;;;;4363415;32;20228;-67
2022/09/27 11:48:22;;;;;;;0.30;0.30;;;11.90;99.90;;;;;;4352808;32;20493;-66
2022/09/27 11:50:56;;;;;;;0.30;0.30;;;11.90;99.90;;;;;;4350474;32;20259;-64
2022/09/27 11:53:50;;;;;;;1.45;0.60;;;11.80;99.90;;;;;;4361109;32;20237;-64
2022/09/27 11:56:37;;;;;;;0.30;0.30;;;11.80;99.90;;;;;;4362882;32;20085;-67
2022/09/27 11:59:24;;;;;;;0.40;0.40;;;11.80;99.90;;;;;;4357200;32;21420;-65
2022/09/27 12:01:59;;;;;;;0.30;0.30;;;11.80;99.90;;;;;;4341878;32;20125;-65
2022/09/27 12:05:01;;;;;;;0.28;0.28;;;11.80;99.90;;;;;;4347948;32;20114;-67
2022/09/27 12:07:38;;;;;;;0.28;0.28;;;11.80;99.90;;;;;;4360290;32;20156;-65
2022/09/27 12:10:10;;;;;;;0.37;0.37;;;11.80;99.90;;;;;;4372865;32;20094;-67
2022/09/27 12:12:40;;;;;;;0.30;0.30;;;11.90;99.90;;;;;;4382880;32;20754;-67
2022/09/27 12:15:15;;;;;;;0.50;0.50;;;12.00;99.90;;;;;;4372343;32;20118;-65
2022/09/27 12:17:44;;;;;;;0.30;0.30;;;12.10;99.90;;;;;;4366501;32;20788;-66
2022/09/27 12:20:19;;;;;;;0.30;0.30;;;12.20;99.90;;;;;;4370422;32;20849;-64
2022/09/27 12:22:57;;;;;;;0.30;0.30;;;12.30;99.90;;;;;;4355027;32;20097;-65
2022/09/27 12:25:28;;;;;;;0.52;0.52;;;12.40;99.90;;;;;;4362989;32;20137;-65
2022/09/27 12:28:02;;;;;;;0.73;0.65;;;12.50;99.90;;;;;;4369811;32;20143;-66
2022/09/27 12:30:31;;;;;;;0.40;0.40;;;12.60;99.90;;;;;;4348216;32;20921;-65
2022/09/27 12:33:22;;;;;;;1.33;0.60;;;12.90;99.90;;;;;;4339909;32;20590;-67
2022/09/27 12:35:52;;;;;;;0.52;0.50;;;13.00;99.90;;;;;;4352404;32;20572;-68
2022/09/27 12:38:26;;;;;;;0.43;0.43;;;12.90;99.90;;;;;;4381660;32;20267;-65
2022/09/27 12:40:57;;;;;;;0.90;0.43;;;12.80;99.90;;;;;;4394090;32;20191;-66
2022/09/27 12:43:26;;;;;;;0.32;0.32;;;12.80;99.90;;;;;;4390686;32;20692;-66
2022/09/27 12:46:10;;;;;;;0.50;0.50;;;12.80;99.90;;;;;;4392682;32;20073;-65
2022/09/27 12:48:46;;;;;;;0.45;0.45;;;12.80;99.90;;;;;;4378016;32;20303;-66
2022/09/27 12:51:14;;;;;;;0.30;0.30;;;12.90;99.90;;;;;;4384137;32;20179;-66
2022/09/27 12:54:02;;;;;;;0.40;0.40;;;13.00;99.90;;;;;;4380586;32;21081;-66
2022/09/27 12:56:50;;;;;;;0.30;0.30;;;13.10;99.90;;;;;;4389728;32;20073;-66
2022/09/27 12:59:45;;;;;;;0.47;0.47;;;13.00;99.90;;;;;;4387803;32;20188;-66
2022/09/27 13:02:38;;;;;;;0.40;0.40;;;13.00;99.90;;;;;;4360232;32;20192;-66
2022/09/27 13:05:44;;;;;;;0.57;0.57;;;12.90;99.90;;;;;;4355799;32;20095;-66
2022/09/27 13:08:43;;;;;;;0.30;0.30;;;12.80;99.90;;;;;;4384139;32;20200;-67
2022/09/27 13:11:20;;;;;;;0.40;0.40;;;12.90;99.90;;;;;;4395187;32;20170;-67
2022/09/27 13:13:46;;;;;;;0.40;0.40;;;12.70;99.90;;;;;;4395489;32;20105;-66
2022/09/27 13:16:12;;;;;;;0.30;0.30;;;12.70;99.90;;;;;;4392936;32;20725;-66
2022/09/27 13:19:00;;;;;;;0.30;0.30;;;12.80;99.90;;;;;;4380775;32;20364;-66